Terminal Aerodrome Forecast
Issued by NWS

Home | Current Version | Previous Version | Text Only | Print | Product List | Glossary On
Versions: 1 2 3 4 5 6 7 8 9 10 11 12 13 14 15 16 17 18 19 20 21 22 23 24 25
000
FTUS44 KCRP 260719 AAA
TAFALI
TAF AMD
KALI 260719Z 2607/2706 16003KT 6SM BR FEW003 OVC014
     FM261400 VRB05KT 4SM BR SCT007 BKN015
     FM261600 16005KT P6SM SCT025 BKN035
     FM262100 15009KT P6SM FEW025 SCT035
     FM270300 14010KT P6SM BKN015=

USA.gov is the U.S. government's official web portal to all federal, state and local government web resources and services.